Time;durP1;ratioP1;P1;durP2;ratioP2;P2;SDS_P1;SDS_P2;PMS_P1;PMS_P2;Temp;Humidity;BMP_temperature;BMP_pressure;BME280_temperature;BME280_humidity;BME280_pressure;Samples;Min_cycle;Max_cycle;Signal;HPM_P1;HPM_P2
2023/12/30 00:01:42;;;;;;;0.60;0.50;;;;;;;10.76;90.49;100207.34;5031629;27;99238;-72
2023/12/30 00:04:09;;;;;;;1.48;0.50;;;;;;;10.60;91.37;100201.88;5029585;27;98782;-72
2023/12/30 00:06:35;;;;;;;0.20;0.17;;;;;;;10.81;91.03;100217.72;5027643;27;97381;-71
2023/12/30 00:09:03;;;;;;;0.93;0.30;;;;;;;10.43;92.16;100219.41;5030996;27;96870;-72
2023/12/30 00:11:29;;;;;;;2.45;0.60;;;;;;;10.57;91.99;100209.06;5030060;27;99308;-73
2023/12/30 00:13:56;;;;;;;0.90;0.30;;;;;;;10.90;90.96;100210.22;5032477;27;102600;-74
2023/12/30 00:16:22;;;;;;;0.35;0.20;;;;;;;10.92;89.83;100215.44;5031890;27;96832;-72
2023/12/30 00:18:48;;;;;;;0.32;0.08;;;;;;;10.94;89.68;100219.75;5023538;27;99638;-74
2023/12/30 00:21:19;;;;;;;2.13;0.20;;;;;;;10.88;89.71;100209.44;5025666;27;98202;-74
2023/12/30 00:23:46;;;;;;;1.90;0.40;;;;;;;11.06;89.81;100213.03;5031514;27;97530;-73
2023/12/30 00:26:20;;;;;;;0.93;0.30;;;;;;;10.94;89.91;100205.66;5031324;27;96738;-73
2023/12/30 00:28:47;;;;;;;1.13;0.40;;;;;;;10.83;91.17;100192.91;5030126;27;97318;-73
2023/12/30 00:31:20;;;;;;;0.10;0.00;;;;;;;11.03;90.23;100171.72;5030931;27;98892;-73
2023/12/30 00:33:47;;;;;;;1.52;0.20;;;;;;;11.37;88.35;100165.69;5032136;27;98795;-73
2023/12/30 00:36:13;;;;;;;0.50;0.28;;;;;;;11.49;88.35;100159.81;5029682;27;97272;-73
2023/12/30 00:38:40;;;;;;;0.82;0.20;;;;;;;11.50;88.18;100161.53;5026617;27;97373;-74
2023/12/30 00:41:06;;;;;;;0.20;0.10;;;;;;;11.40;89.07;100180.59;5025124;27;99253;-73
2023/12/30 00:43:34;;;;;;;1.85;0.20;;;;;;;11.08;90.73;100190.03;5030458;27;98877;-73
2023/12/30 00:46:00;;;;;;;2.17;0.20;;;;;;;10.72;92.85;100219.84;5024648;27;99043;-73
2023/12/30 00:48:27;;;;;;;1.45;0.30;;;;;;;10.35;95.87;100225.00;5029831;27;99346;-73
2023/12/30 00:50:53;;;;;;;2.85;1.00;;;;;;;10.45;96.29;100212.25;5029984;27;98922;-73
2023/12/30 00:53:20;;;;;;;1.75;0.60;;;;;;;10.52;95.82;100214.56;5026410;27;96829;-73
2023/12/30 00:55:47;;;;;;;1.92;0.80;;;;;;;10.57;96.65;100215.22;5015665;27;97151;-73
2023/12/30 00:58:13;;;;;;;1.02;0.80;;;;;;;10.78;94.98;100210.78;5026438;27;97117;-71
2023/12/30 01:00:41;;;;;;;1.95;0.80;;;;;;;11.16;92.81;100220.47;5022825;27;98234;-73
2023/12/30 01:03:08;;;;;;;1.17;0.60;;;;;;;10.48;95.91;100220.91;5023697;27;98212;-73
2023/12/30 01:05:34;;;;;;;4.32;0.80;;;;;;;10.34;98.24;100228.56;5031062;27;96804;-71
2023/12/30 01:08:01;;;;;;;1.92;0.80;;;;;;;10.81;95.10;100233.56;5022300;27;97145;-71
2023/12/30 01:10:27;;;;;;;2.22;0.50;;;;;;;10.71;95.64;100227.81;5021383;27;98864;-72
2023/12/30 01:12:54;;;;;;;2.17;0.75;;;;;;;10.47;96.90;100229.75;5023189;27;97936;-72
2023/12/30 01:15:20;;;;;;;2.33;0.93;;;;;;;10.47;95.96;100224.47;5021001;27;97408;-71
2023/12/30 01:17:48;;;;;;;2.42;1.33;;;;;;;10.18;96.18;100224.84;5028509;27;98949;-72
2023/12/30 01:20:14;;;;;;;0.70;0.57;;;;;;;10.15;97.85;100240.78;5030487;27;99136;-72
2023/12/30 01:22:40;;;;;;;;;;;;;;;10.15;95.70;100243.44;5024734;27;100731;-71
2023/12/30 01:25:08;;;;;;;1.10;0.57;;;;;;;10.05;96.45;100242.09;5028431;27;97232;-71
2023/12/30 01:27:35;;;;;;;0.63;0.30;;;;;;;9.86;95.05;100242.84;5025924;27;97340;-72
2023/12/30 01:30:01;;;;;;;3.10;0.38;;;;;;;9.87;95.49;100247.19;5024331;27;99740;-72
2023/12/30 01:32:28;;;;;;;1.33;0.50;;;;;;;10.10;94.78;100251.56;5027995;27;101351;-72
2023/12/30 01:34:56;;;;;;;3.25;0.73;;;;;;;10.03;92.45;100254.50;5029363;27;96911;-72
2023/12/30 01:37:23;;;;;;;1.95;0.50;;;;;;;10.15;91.26;100256.63;5028310;27;97166;-72
2023/12/30 01:39:49;;;;;;;4.22;0.55;;;;;;;10.11;90.34;100252.41;5027495;27;98848;-72
2023/12/30 01:42:16;;;;;;;2.53;0.90;;;;;;;10.21;89.64;100257.28;5023438;27;97787;-69
2023/12/30 01:44:42;;;;;;;0.85;0.50;;;;;;;9.97;90.50;100271.47;5020550;27;97131;-70
2023/12/30 01:47:09;;;;;;;1.55;0.75;;;;;;;10.15;90.95;100275.13;5029475;27;96849;-70
2023/12/30 01:49:38;;;;;;;1.23;0.40;;;;;;;10.11;91.67;100271.72;5024202;27;97641;-70
2023/12/30 01:52:07;;;;;;;3.97;0.30;;;;;;;9.96;92.53;100269.72;5028243;27;98157;-70
2023/12/30 01:54:33;;;;;;;3.17;0.35;;;;;;;9.77;94.15;100279.31;5029662;27;97188;-69
2023/12/30 01:57:02;;;;;;;2.17;0.40;;;;;;;9.80;95.56;100272.13;5023822;27;97187;-70
2023/12/30 01:59:30;;;;;;;0.98;0.30;;;;;;;9.79;96.17;100265.13;5021179;27;98983;-70
2023/12/30 02:01:57;;;;;;;0.20;0.20;;;;;;;10.02;95.50;100268.63;5018644;27;98769;-70
2023/12/30 02:04:24;;;;;;;2.88;0.40;;;;;;;10.09;95.64;100272.72;5022333;27;97173;-70
2023/12/30 02:06:51;;;;;;;1.33;0.40;;;;;;;9.87;97.07;100278.88;5017162;27;98943;-70
2023/12/30 02:09:18;;;;;;;2.17;0.40;;;;;;;9.89;98.23;100274.41;5023560;27;99034;-69
2023/12/30 02:11:45;;;;;;;0.45;0.40;;;;;;;10.04;97.73;100286.13;5024231;27;99363;-69
2023/12/30 02:14:25;;;;;;;2.50;0.50;;;;;;;10.16;97.84;100284.75;5027073;27;97154;-69
2023/12/30 02:16:51;;;;;;;1.30;0.40;;;;;;;10.31;97.41;100287.63;5020970;27;96869;-69
2023/12/30 02:19:17;;;;;;;5.28;0.80;;;;;;;10.40;96.54;100283.78;5026006;27;98302;-68
2023/12/30 02:21:44;;;;;;;1.25;0.45;;;;;;;9.89;98.53;100289.38;5028409;27;100771;-68
2023/12/30 02:24:12;;;;;;;2.03;0.30;;;;;;;9.99;98.26;100277.50;5025256;27;97203;-69
2023/12/30 02:26:39;;;;;;;5.25;2.45;;;;;;;10.19;97.64;100276.72;5022885;27;97435;-68
2023/12/30 02:29:05;;;;;;;2.53;0.93;;;;;;;10.16;97.65;100271.56;5023415;27;99073;-69
2023/12/30 02:31:32;;;;;;;4.13;0.57;;;;;;;9.93;98.01;100281.25;5023369;27;99037;-68
2023/12/30 02:33:58;;;;;;;6.60;0.90;;;;;;;9.91;97.33;100291.00;5024117;27;97602;-68
2023/12/30 02:36:24;;;;;;;2.42;0.60;;;;;;;9.89;97.16;100306.06;5021238;27;96728;-68
2023/12/30 02:38:51;;;;;;;3.72;0.57;;;;;;;10.09;96.42;100299.13;5027864;27;97539;-68
2023/12/30 02:41:18;;;;;;;8.52;0.75;;;;;;;9.53;98.14;100292.50;5026474;27;98812;-68
2023/12/30 02:43:54;;;;;;;2.20;0.93;;;;;;;9.70;97.52;100297.16;5018898;27;96666;-71
2023/12/30 02:46:20;;;;;;;9.77;7.13;;;;;;;10.09;95.90;100294.72;5025853;27;97488;-69
2023/12/30 02:48:47;;;;;;;2.38;1.65;;;;;;;10.03;94.88;100312.59;5024279;27;99594;-69
2023/12/30 02:51:15;;;;;;;3.63;0.50;;;;;;;10.20;93.82;100304.84;5029971;27;98898;-69
2023/12/30 02:53:41;;;;;;;7.45;3.90;;;;;;;10.60;92.17;100302.28;5025397;27;97622;-70
2023/12/30 02:56:17;;;;;;;6.13;3.65;;;;;;;10.87;90.14;100291.44;5022856;27;98955;-69
2023/12/30 02:58:45;;;;;;;3.95;1.23;;;;;;;10.69;90.22;100299.25;5015854;27;99166;-71
2023/12/30 03:01:12;;;;;;;2.35;0.90;;;;;;;10.26;92.44;100304.59;5023472;27;99235;-69
2023/12/30 03:03:38;;;;;;;1.10;0.40;;;;;;;10.50;90.80;100308.84;5030687;27;96934;-69
2023/12/30 03:06:05;;;;;;;1.17;0.40;;;;;;;10.72;89.39;100309.69;5021895;27;96721;-69
2023/12/30 03:08:31;;;;;;;0.52;0.30;;;;;;;10.73;88.09;100311.41;5029008;27;99208;-69
2023/12/30 03:10:57;;;;;;;2.25;0.60;;;;;;;10.62;88.60;100315.44;5021399;27;98801;-69
2023/12/30 03:13:24;;;;;;;1.15;0.35;;;;;;;10.36;89.43;100313.88;5028152;27;96781;-69
2023/12/30 03:15:51;;;;;;;2.60;0.63;;;;;;;10.07;90.75;100309.75;5030638;27;96717;-69
2023/12/30 03:18:18;;;;;;;2.35;0.80;;;;;;;10.51;89.16;100313.22;5025696;27;97619;-69
2023/12/30 03:20:44;;;;;;;3.13;1.15;;;;;;;10.40;88.09;100315.47;5030145;27;101887;-69
2023/12/30 03:23:11;;;;;;;1.92;1.08;;;;;;;10.17;89.01;100311.13;5030071;27;97318;-69
2023/12/30 03:25:38;;;;;;;4.00;1.92;;;;;;;10.22;88.97;100306.53;5029950;27;96927;-69
2023/12/30 03:28:05;;;;;;;3.03;1.30;;;;;;;10.41;87.46;100306.63;5027473;27;99016;-69
2023/12/30 03:30:31;;;;;;;3.45;0.40;;;;;;;10.18;87.92;100309.34;5029009;27;99112;-70
2023/12/30 03:32:59;;;;;;;3.58;0.52;;;;;;;10.36;87.74;100287.47;5025141;27;96794;-69
2023/12/30 03:35:25;;;;;;;2.45;0.50;;;;;;;10.54;86.78;100262.06;5020935;27;97186;-69
2023/12/30 03:37:52;;;;;;;0.88;0.40;;;;;;;10.38;86.98;100272.41;5024756;27;98946;-69
2023/12/30 03:40:18;;;;;;;2.80;0.40;;;;;;;10.61;85.58;100266.16;5028225;27;97488;-69
2023/12/30 03:42:45;;;;;;;4.75;0.50;;;;;;;10.18;87.02;100280.28;5027790;27;96985;-69
2023/12/30 03:45:11;;;;;;;2.40;0.30;;;;;;;10.08;88.44;100282.44;5029528;27;97176;-69
2023/12/30 03:47:37;;;;;;;0.90;0.20;;;;;;;10.27;87.44;100283.44;5027924;27;98919;-69
2023/12/30 03:50:06;;;;;;;1.55;0.30;;;;;;;10.02;88.59;100297.66;5026610;27;99062;-69
2023/12/30 03:52:32;;;;;;;0.32;0.25;;;;;;;9.96;89.01;100289.06;5032097;27;96975;-69
2023/12/30 03:54:58;;;;;;;1.17;0.50;;;;;;;10.00;87.81;100290.66;5029432;27;98602;-68
2023/12/30 03:57:26;;;;;;;0.20;0.17;;;;;;;10.16;88.04;100285.63;5027969;27;99609;-69
2023/12/30 03:59:52;;;;;;;2.70;0.30;;;;;;;10.05;88.09;100293.09;5024777;27;99035;-69
2023/12/30 04:02:21;;;;;;;1.52;0.38;;;;;;;10.06;88.42;100288.69;5029275;27;96842;-69
2023/12/30 04:04:47;;;;;;;1.75;0.20;;;;;;;10.28;87.28;100298.34;5023304;27;96783;-69
2023/12/30 04:07:15;;;;;;;0.82;0.30;;;;;;;10.02;88.06;100295.03;5025268;28;99457;-69
2023/12/30 04:09:42;;;;;;;2.13;0.60;;;;;;;9.71;89.15;100300.66;5023127;27;98990;-69
2023/12/30 04:12:08;;;;;;;1.65;0.20;;;;;;;9.31;91.17;100304.81;5018203;27;96993;-69
2023/12/30 04:14:35;;;;;;;1.65;0.38;;;;;;;9.59;90.65;100307.25;5028049;27;97553;-69
2023/12/30 04:17:01;;;;;;;3.03;0.50;;;;;;;9.30;89.88;100324.19;5018208;27;98809;-69
2023/12/30 04:19:30;;;;;;;3.50;0.20;;;;;;;8.87;93.04;100316.06;5018854;27;100091;-68
2023/12/30 04:21:56;;;;;;;1.08;0.30;;;;;;;9.22;91.47;100320.09;5023541;27;97200;-69
2023/12/30 04:24:24;;;;;;;1.20;0.20;;;;;;;8.84;91.58;100316.22;5019237;27;97242;-73
2023/12/30 04:26:51;;;;;;;2.15;0.35;;;;;;;9.10;90.59;100317.00;5028060;27;98909;-72
2023/12/30 04:29:17;;;;;;;2.28;0.50;;;;;;;9.46;88.75;100319.19;5021910;27;99325;-73
2023/12/30 04:31:44;;;;;;;2.25;0.32;;;;;;;9.05;88.63;100328.63;5019136;27;97277;-72
2023/12/30 04:34:10;;;;;;;0.80;0.22;;;;;;;9.39;88.16;100331.72;5031627;27;97372;-72
2023/12/30 04:36:37;;;;;;;3.90;0.28;;;;;;;9.30;87.21;100336.50;5018102;27;99306;-74
2023/12/30 04:39:03;;;;;;;2.80;0.22;;;;;;;9.06;87.52;100349.63;5030919;27;102199;-72
2023/12/30 04:41:31;;;;;;;1.80;0.25;;;;;;;9.00;87.29;100344.56;5021528;27;97223;-72
2023/12/30 04:43:57;;;;;;;1.17;0.20;;;;;;;8.93;87.36;100343.06;5028492;27;96734;-73
2023/12/30 04:46:24;;;;;;;0.43;0.20;;;;;;;9.10;86.07;100340.72;5028626;27;99219;-73
2023/12/30 04:48:53;;;;;;;0.30;0.20;;;;;;;9.22;85.05;100341.19;5026397;27;98838;-73
2023/12/30 04:51:20;;;;;;;0.80;0.20;;;;;;;9.16;83.79;100356.31;5028964;27;96963;-72
2023/12/30 04:53:46;;;;;;;2.08;0.15;;;;;;;9.04;84.48;100363.78;5036829;27;96987;-72
2023/12/30 04:56:15;;;;;;;1.05;0.20;;;;;;;8.65;86.21;100368.66;5030058;27;101169;-72
2023/12/30 04:58:43;;;;;;;0.90;0.20;;;;;;;8.87;85.60;100369.63;5028917;27;99160;-72
2023/12/30 05:01:09;;;;;;;2.75;0.30;;;;;;;8.95;85.20;100370.25;5030879;27;97217;-72
2023/12/30 05:03:36;;;;;;;2.13;0.40;;;;;;;9.22;83.42;100370.19;5015202;27;97271;-72
2023/12/30 05:06:03;;;;;;;0.93;0.20;;;;;;;9.33;82.52;100368.88;5030317;27;99248;-72
2023/12/30 05:08:30;;;;;;;0.45;0.15;;;;;;;9.26;82.50;100377.06;5020752;27;98903;-72
2023/12/30 05:10:56;;;;;;;0.40;0.20;;;;;;;9.20;83.30;100389.53;5022385;27;96800;-72
2023/12/30 05:13:22;;;;;;;2.40;0.30;;;;;;;9.04;83.61;100396.28;5027633;27;96875;-73
2023/12/30 05:15:50;;;;;;;1.23;0.20;;;;;;;8.51;85.93;100407.75;5022787;27;98901;-72
2023/12/30 05:18:17;;;;;;;0.43;0.20;;;;;;;9.03;84.07;100402.47;5031325;27;98844;-71
2023/12/30 05:20:44;;;;;;;3.30;0.40;;;;;;;9.19;83.28;100415.97;5028776;27;96818;-73
2023/12/30 05:23:10;;;;;;;0.88;0.30;;;;;;;9.17;82.82;100412.53;5020335;27;98633;-73
2023/12/30 05:25:37;;;;;;;1.90;0.40;;;;;;;9.22;82.69;100412.38;5029219;27;98226;-73
2023/12/30 05:28:04;;;;;;;0.60;0.10;;;;;;;9.03;83.61;100404.25;5030561;27;98965;-73
2023/12/30 05:30:30;;;;;;;1.65;0.30;;;;;;;9.21;82.54;100411.50;5031046;27;97466;-73
2023/12/30 05:32:58;;;;;;;0.73;0.20;;;;;;;9.09;82.40;100415.44;5032026;27;96822;-73
2023/12/30 05:35:24;;;;;;;2.08;0.35;;;;;;;8.77;82.63;100426.19;5030299;27;98978;-73
2023/12/30 05:37:51;;;;;;;1.85;0.30;;;;;;;8.80;84.20;100426.09;5028768;27;98893;-70
2023/12/30 05:40:17;;;;;;;1.67;0.47;;;;;;;8.88;83.64;100429.34;5029776;27;96784;-69
2023/12/30 05:42:44;;;;;;;1.80;0.30;;;;;;;9.01;82.99;100430.63;5030487;27;96770;-69
2023/12/30 05:45:10;;;;;;;1.08;0.30;;;;;;;8.91;82.73;100431.88;5030542;27;99551;-68
2023/12/30 05:47:37;;;;;;;0.40;0.22;;;;;;;9.07;82.11;100440.09;5030297;27;99349;-68
2023/12/30 05:50:06;;;;;;;0.85;0.20;;;;;;;8.80;82.96;100452.44;5030149;27;96788;-68
2023/12/30 05:52:32;;;;;;;2.67;0.35;;;;;;;9.00;82.13;100454.41;5025545;27;96780;-69
2023/12/30 05:54:58;;;;;;;2.53;0.40;;;;;;;8.66;83.01;100457.31;5024356;27;98195;-69
2023/12/30 05:57:25;;;;;;;0.77;0.20;;;;;;;8.88;83.09;100471.50;5025767;27;97468;-69
2023/12/30 05:59:51;;;;;;;1.73;0.30;;;;;;;8.83;83.02;100473.44;5022355;27;96995;-69
2023/12/30 06:02:18;;;;;;;3.47;0.52;;;;;;;8.70;83.60;100470.31;5023724;27;96903;-70
2023/12/30 06:04:44;;;;;;;0.63;0.28;;;;;;;8.86;83.22;100483.84;5030213;27;101919;-75
2023/12/30 06:07:12;;;;;;;1.23;0.43;;;;;;;8.60;82.98;100483.84;5026668;27;98956;-74
2023/12/30 06:09:38;;;;;;;1.58;0.30;;;;;;;8.40;84.77;100495.00;5018454;27;97281;-74
2023/12/30 06:12:05;;;;;;;4.15;0.30;;;;;;;8.73;83.63;100493.06;5025780;27;97104;-75
2023/12/30 06:14:32;;;;;;;1.83;0.30;;;;;;;8.92;82.02;100494.22;5021989;27;102561;-74
2023/12/30 06:16:58;;;;;;;6.97;0.40;;;;;;;8.14;84.75;100493.09;5018528;28;101129;-73
2023/12/30 06:19:24;;;;;;;3.20;0.40;;;;;;;8.39;84.60;100504.66;5028755;27;97076;-73
2023/12/30 06:21:51;;;;;;;2.28;0.40;;;;;;;8.25;84.34;100506.81;5015544;27;96944;-73
2023/12/30 06:24:19;;;;;;;1.77;0.40;;;;;;;8.35;84.55;100507.41;5016882;27;102240;-74
2023/12/30 06:26:45;;;;;;;2.40;0.20;;;;;;;8.33;84.52;100507.50;5020871;27;99542;-74
2023/12/30 06:29:11;;;;;;;1.75;0.30;;;;;;;8.43;84.22;100518.59;5023613;27;97099;-73
2023/12/30 06:31:41;;;;;;;2.97;0.40;;;;;;;8.23;84.20;100521.78;5023215;27;96871;-72
2023/12/30 06:34:07;;;;;;;0.70;0.30;;;;;;;8.44;83.78;100516.81;5025448;27;97529;-72
2023/12/30 06:36:34;;;;;;;2.45;0.43;;;;;;;8.34;84.10;100524.97;5026947;27;98953;-72
2023/12/30 06:39:00;;;;;;;5.38;0.43;;;;;;;8.30;84.50;100526.00;5027584;27;97300;-72
2023/12/30 06:41:28;;;;;;;2.05;0.40;;;;;;;8.38;83.85;100531.91;5023227;27;96856;-72
2023/12/30 06:43:55;;;;;;;2.50;0.30;;;;;;;8.02;85.20;100538.19;5028572;28;98907;-73
2023/12/30 06:46:21;;;;;;;1.17;0.30;;;;;;;8.07;85.31;100549.47;5020033;27;98220;-74
2023/12/30 06:48:48;;;;;;;5.05;0.70;;;;;;;8.08;84.74;100552.94;5019965;27;96850;-72
2023/12/30 06:51:14;;;;;;;3.17;0.50;;;;;;;7.79;84.96;100544.09;5024360;27;97199;-69
2023/12/30 06:53:41;;;;;;;2.25;0.40;;;;;;;7.78;86.30;100557.28;5025806;27;99034;-69
2023/12/30 06:56:08;;;;;;;2.13;0.40;;;;;;;8.11;84.43;100555.50;5020705;27;100157;-69
2023/12/30 06:58:35;;;;;;;2.30;0.38;;;;;;;8.15;83.42;100557.97;5028510;27;96792;-70
2023/12/30 07:01:02;;;;;;;2.55;0.55;;;;;;;8.12;83.76;100575.66;5023729;27;99075;-69
2023/12/30 07:03:28;;;;;;;2.78;0.63;;;;;;;8.48;81.66;100568.47;5029026;27;98935;-69
2023/12/30 07:05:55;;;;;;;6.25;0.60;;;;;;;8.36;81.87;100570.56;5022919;27;97811;-69
2023/12/30 07:08:21;;;;;;;3.72;0.65;;;;;;;8.50;80.86;100580.69;5030144;27;100263;-69
2023/12/30 07:10:47;;;;;;;4.50;0.70;;;;;;;8.35;81.62;100581.13;5026039;27;97252;-73
2023/12/30 07:13:15;;;;;;;2.08;0.68;;;;;;;8.18;81.62;100594.75;5021579;27;99272;-73
2023/12/30 07:15:43;;;;;;;7.47;0.60;;;;;;;7.91;83.26;100591.13;5027434;27;99670;-73
2023/12/30 07:18:11;;;;;;;0.68;0.20;;;;;;;8.00;83.29;100595.28;5028302;27;97852;-74
2023/12/30 07:20:38;;;;;;;5.40;0.40;;;;;;;8.14;83.19;100601.00;5030270;27;96951;-73
2023/12/30 07:23:05;;;;;;;5.68;0.30;;;;;;;8.01;83.52;100607.50;5024906;27;98127;-70
2023/12/30 07:25:32;;;;;;;1.92;0.63;;;;;;;8.16;82.79;100601.81;5016130;27;100081;-69
2023/12/30 07:27:58;;;;;;;3.58;0.65;;;;;;;8.17;83.32;100605.31;5020417;27;97159;-69
2023/12/30 07:30:31;;;;;;;3.63;0.65;;;;;;;7.80;84.31;100610.72;5025461;27;97090;-70
2023/12/30 07:32:59;;;;;;;7.30;1.05;;;;;;;7.86;84.55;100614.06;5023156;27;102411;-69
2023/12/30 07:35:27;;;;;;;3.03;0.57;;;;;;;8.02;83.96;100620.63;5020767;27;99157;-69
2023/12/30 07:37:53;;;;;;;4.05;0.60;;;;;;;8.06;83.19;100631.09;5015522;27;96881;-70
2023/12/30 07:40:20;;;;;;;4.75;0.60;;;;;;;8.00;83.92;100626.84;5028411;27;98193;-68
2023/12/30 07:42:46;;;;;;;6.35;0.60;;;;;;;7.97;83.90;100626.91;5028349;27;101525;-68
2023/12/30 07:45:14;;;;;;;3.53;0.60;;;;;;;8.02;83.53;100632.91;5025847;27;103712;-69
2023/12/30 07:47:41;;;;;;;6.47;0.50;;;;;;;7.99;83.32;100643.53;5029216;27;97131;-69
2023/12/30 07:50:10;;;;;;;5.30;0.80;;;;;;;8.07;83.35;100641.56;5024283;27;98573;-69
2023/12/30 07:52:36;;;;;;;4.65;0.68;;;;;;;7.91;83.84;100640.25;5029873;27;97640;-70
2023/12/30 07:55:03;;;;;;;6.32;0.52;;;;;;;8.19;83.99;100649.13;5018726;27;101756;-70
2023/12/30 07:57:30;;;;;;;4.93;0.65;;;;;;;8.44;82.50;100651.09;5024297;27;97295;-69
2023/12/30 07:59:56;;;;;;;2.13;0.47;;;;;;;8.64;81.44;100647.00;5016705;27;98595;-69
2023/12/30 08:02:23;;;;;;;5.05;0.68;;;;;;;8.69;81.11;100654.75;5021606;27;99331;-69
2023/12/30 08:04:49;;;;;;;6.07;0.70;;;;;;;8.53;81.25;100653.50;5016156;27;99896;-69
2023/12/30 08:07:17;;;;;;;3.88;1.17;;;;;;;8.52;82.32;100662.28;5020784;27;98741;-68
2023/12/30 08:09:44;;;;;;;7.80;0.68;;;;;;;7.88;84.77;100671.88;5026002;27;96883;-69
2023/12/30 08:12:10;;;;;;;3.30;0.60;;;;;;;7.88;85.26;100671.88;5033431;27;98908;-70
2023/12/30 08:14:37;;;;;;;3.13;0.70;;;;;;;7.89;85.59;100676.22;5024201;27;97654;-70
2023/12/30 08:17:04;;;;;;;6.32;0.70;;;;;;;7.77;85.84;100666.91;5024648;27;97101;-70
2023/12/30 08:19:30;;;;;;;1.05;0.50;;;;;;;7.96;85.67;100680.44;5032346;27;98913;-69
2023/12/30 08:21:57;;;;;;;5.40;0.60;;;;;;;7.82;86.03;100672.91;5017711;27;99347;-69
2023/12/30 08:24:28;;;;;;;1.17;0.38;;;;;;;8.08;84.46;100674.84;5021651;27;98805;-69
2023/12/30 08:26:54;;;;;;;9.70;0.93;;;;;;;8.35;83.58;100674.16;5029469;27;97630;-69
2023/12/30 08:29:20;;;;;;;13.15;0.77;;;;;;;7.84;85.14;100667.59;5038229;27;97137;-69
2023/12/30 08:31:47;;;;;;;9.90;0.85;;;;;;;7.85;85.24;100672.84;5029595;27;100602;-69
2023/12/30 08:34:13;;;;;;;2.20;0.57;;;;;;;7.83;85.50;100679.03;5030744;27;98882;-70
2023/12/30 08:36:40;;;;;;;6.50;0.57;;;;;;;7.84;85.25;100672.88;5025469;27;97792;-70
2023/12/30 08:39:07;;;;;;;11.05;1.70;;;;;;;7.87;85.24;100678.06;5031529;27;97261;-69
2023/12/30 08:41:35;;;;;;;4.82;0.40;;;;;;;7.64;86.38;100677.75;5020495;27;101316;-69
2023/12/30 08:44:02;;;;;;;2.10;0.38;;;;;;;7.96;85.42;100678.66;5022673;27;98541;-70
2023/12/30 08:46:29;;;;;;;5.32;0.50;;;;;;;8.05;84.30;100695.13;5031099;27;97764;-70
2023/12/30 08:48:55;;;;;;;5.32;1.45;;;;;;;8.22;83.98;100701.69;5019743;27;97188;-69
2023/12/30 08:51:22;;;;;;;8.05;0.68;;;;;;;8.41;82.88;100696.81;5027713;27;99146;-69
2023/12/30 08:53:49;;;;;;;2.95;1.23;;;;;;;8.36;82.34;100698.72;5036710;27;99362;-70
2023/12/30 08:56:15;;;;;;;4.43;0.88;;;;;;;8.04;83.52;100698.66;5019703;27;96799;-70
2023/12/30 08:58:43;;;;;;;8.70;1.58;;;;;;;8.06;83.88;100705.63;5019637;27;96798;-69
2023/12/30 09:01:09;;;;;;;6.35;0.70;;;;;;;8.05;83.57;100696.00;5025166;27;99711;-69
2023/12/30 09:03:36;;;;;;;5.25;0.85;;;;;;;8.00;84.03;100696.13;5022431;27;98813;-70
2023/12/30 09:06:03;;;;;;;5.30;0.75;;;;;;;7.94;84.52;100693.63;5030430;27;97018;-69
2023/12/30 09:08:30;;;;;;;12.85;1.10;;;;;;;8.05;83.37;100708.28;5032466;27;96913;-70
2023/12/30 09:10:56;;;;;;;6.78;0.95;;;;;;;8.39;81.79;100702.13;5030750;27;99755;-69
2023/12/30 09:13:23;;;;;;;2.83;0.82;;;;;;;8.29;81.96;100708.50;5030695;27;98845;-69
2023/12/30 09:15:51;;;;;;;6.32;0.85;;;;;;;8.39;82.09;100715.31;5031035;27;97270;-68
2023/12/30 09:18:18;;;;;;;4.70;1.23;;;;;;;8.68;80.66;100722.38;5025579;27;98131;-68
2023/12/30 09:20:44;;;;;;;3.50;0.60;;;;;;;8.83;79.55;100720.22;5020322;27;99222;-69
2023/12/30 09:23:11;;;;;;;9.85;2.13;;;;;;;9.11;78.55;100732.56;5020510;27;98755;-68
2023/12/30 09:25:37;;;;;;;3.85;0.77;;;;;;;9.12;77.98;100730.81;5016961;27;98996;-68
2023/12/30 09:28:04;;;;;;;7.43;1.25;;;;;;;8.65;79.96;100724.25;5018739;27;97380;-69
2023/12/30 09:30:31;;;;;;;5.72;0.95;;;;;;;8.93;78.50;100727.81;5024372;27;100524;-69
2023/12/30 09:32:58;;;;;;;6.13;1.10;;;;;;;8.71;79.17;100745.16;5020421;27;97713;-69
2023/12/30 09:35:25;;;;;;;5.70;1.15;;;;;;;8.23;81.27;100735.00;5027967;27;96862;-69
2023/12/30 09:37:51;;;;;;;8.10;1.20;;;;;;;8.76;79.36;100740.63;5023300;27;96738;-69
2023/12/30 09:40:18;;;;;;;3.95;0.80;;;;;;;8.46;79.94;100750.25;5025574;27;102585;-69
2023/12/30 09:42:48;;;;;;;5.38;0.70;;;;;;;8.36;80.35;100757.50;5029344;27;98718;-70
2023/12/30 09:45:15;;;;;;;6.18;1.10;;;;;;;8.21;80.52;100751.72;5031469;28;97681;-70
2023/12/30 09:47:42;;;;;;;4.18;0.60;;;;;;;8.32;80.77;100755.88;5028013;27;96740;-70
2023/12/30 09:50:10;;;;;;;15.32;1.33;;;;;;;8.61;79.87;100762.97;5024584;27;99009;-70
2023/12/30 09:52:36;;;;;;;8.40;0.80;;;;;;;8.24;79.90;100763.06;5033870;27;98772;-69
2023/12/30 09:55:03;;;;;;;12.40;1.58;;;;;;;8.42;80.25;100760.88;5027835;27;96784;-70
2023/12/30 09:57:32;;;;;;;13.38;3.25;;;;;;;8.28;80.84;100759.44;5018651;27;96781;-69
2023/12/30 10:00:00;;;;;;;6.53;0.75;;;;;;;8.35;80.29;100766.28;5020790;27;98896;-70
2023/12/30 10:02:27;;;;;;;10.73;0.90;;;;;;;8.35;80.08;100768.06;5026060;27;97574;-70
2023/12/30 10:04:55;;;;;;;7.55;1.17;;;;;;;8.56;80.03;100779.81;5024320;27;98946;-71
2023/12/30 10:07:23;;;;;;;7.53;1.30;;;;;;;8.95;78.54;100776.06;5026592;27;97188;-70
2023/12/30 10:09:51;;;;;;;11.38;1.25;;;;;;;8.85;78.30;100779.03;5019860;27;99463;-70
2023/12/30 10:12:18;;;;;;;4.93;0.55;;;;;;;8.82;77.86;100777.34;5030868;27;99274;-71
2023/12/30 10:14:44;;;;;;;5.50;1.00;;;;;;;8.90;78.41;100774.50;5030700;27;96828;-71
2023/12/30 10:17:11;;;;;;;8.85;1.48;;;;;;;8.87;78.28;100772.78;5024253;27;96848;-70
2023/12/30 10:19:37;;;;;;;5.85;0.98;;;;;;;8.84;78.40;100790.47;5030096;27;97963;-70
2023/12/30 10:22:04;;;;;;;8.18;1.15;;;;;;;9.10;77.91;100780.94;5026813;27;98809;-70
2023/12/30 10:24:32;;;;;;;11.68;1.15;;;;;;;8.92;77.89;100799.91;5024276;27;97468;-71
2023/12/30 10:27:04;;;;;;;9.40;1.13;;;;;;;9.04;78.17;100798.69;5023748;27;96932;-71
2023/12/30 10:29:30;;;;;;;5.63;1.50;;;;;;;9.30;76.32;100798.81;5030243;27;101234;-70
2023/12/30 10:32:01;;;;;;;6.97;1.17;;;;;;;9.14;76.76;100801.00;5027395;27;99224;-70
2023/12/30 10:34:28;;;;;;;9.00;1.45;;;;;;;9.33;76.74;100790.78;5029771;27;96701;-70
2023/12/30 10:36:55;;;;;;;6.38;1.20;;;;;;;9.18;76.96;100802.66;5028533;27;96952;-70
2023/12/30 10:39:22;;;;;;;5.40;1.20;;;;;;;9.42;76.83;100802.84;5030364;27;97593;-71
2023/12/30 10:41:50;;;;;;;16.50;2.40;;;;;;;9.81;75.03;100803.41;5027360;27;99048;-71
2023/12/30 10:44:17;;;;;;;9.90;1.40;;;;;;;9.42;76.11;100805.47;5030539;27;96727;-70
2023/12/30 10:46:48;;;;;;;8.05;0.80;;;;;;;9.35;75.96;100814.47;5030128;27;98796;-70
2023/12/30 10:49:17;;;;;;;7.65;1.73;;;;;;;9.37;76.53;100808.25;5023820;27;98861;-74
2023/12/30 10:51:45;;;;;;;5.15;0.90;;;;;;;9.43;76.33;100816.00;5022876;27;98847;-74
2023/12/30 10:54:19;;;;;;;6.22;0.95;;;;;;;9.60;75.78;100812.84;5031487;27;98386;-74
2023/12/30 10:56:54;;;;;;;7.50;1.27;;;;;;;9.64;75.15;100821.53;5017859;27;98155;-72
2023/12/30 10:59:23;;;;;;;5.93;1.30;;;;;;;9.41;76.14;100820.44;5023926;27;98927;-72
2023/12/30 11:01:50;;;;;;;4.95;1.00;;;;;;;9.51;76.27;100828.97;5026056;27;98201;-73
2023/12/30 11:04:18;;;;;;;11.30;1.80;;;;;;;10.06;74.13;100819.31;5026163;27;98734;-73
2023/12/30 11:06:50;;;;;;;12.60;1.40;;;;;;;10.08;73.31;100813.09;5024250;27;98683;-73
2023/12/30 11:09:18;;;;;;;9.20;1.30;;;;;;;9.87;73.67;100822.53;5020361;27;100461;-73
2023/12/30 11:11:49;;;;;;;10.63;1.00;;;;;;;9.74;74.46;100813.28;5024756;27;98775;-75
2023/12/30 11:14:17;;;;;;;4.40;0.77;;;;;;;9.54;75.16;100827.06;5018319;27;98053;-73
2023/12/30 11:16:45;;;;;;;9.27;1.27;;;;;;;9.69;74.02;100823.13;5023699;27;96913;-73
2023/12/30 11:19:12;;;;;;;6.60;1.38;;;;;;;9.37;74.87;100823.22;5025593;27;98853;-73
2023/12/30 11:21:40;;;;;;;5.13;1.27;;;;;;;9.47;75.25;100825.53;5029826;27;101634;-73
2023/12/30 11:24:08;;;;;;;5.15;1.00;;;;;;;9.74;73.98;100815.91;5029476;27;96773;-73
2023/12/30 11:26:35;;;;;;;8.63;1.25;;;;;;;10.05;72.59;100815.81;5029546;27;97317;-74
2023/12/30 11:29:03;;;;;;;10.75;1.15;;;;;;;9.93;72.63;100809.16;5029091;27;98975;-74